Time;durP1;ratioP1;P1;durP2;ratioP2;P2;SDS_P1;SDS_P2;PMS_P1;PMS_P2;Temp;Humidity;BMP_temperature;BMP_pressure;BME280_temperature;BME280_humidity;BME280_pressure;Samples;Min_cycle;Max_cycle;Signal;HPM_P1;HPM_P2
2022/09/16 00:01:18;;;;;;;5.82;0.95;;;;;;;;;;5050910;28;20497;-70
2022/09/16 00:03:44;;;;;;;6.70;1.10;;;;;;;;;;5051808;28;20045;-69
2022/09/16 00:06:24;;;;;;;4.43;0.82;;;;;;;;;;5050039;28;20041;-69
2022/09/16 00:08:50;;;;;;;4.55;0.82;;;;;;;;;;5051285;28;20032;-69
2022/09/16 00:11:17;;;;;;;3.45;0.80;;;;;;;;;;5050687;28;20179;-69
2022/09/16 00:13:43;;;;;;;3.75;0.80;;;;;;;;;;5049074;28;20037;-69
2022/09/16 00:16:10;;;;;;;5.65;0.80;;;;;;;;;;5050645;28;20478;-69
2022/09/16 00:18:37;;;;;;;4.93;0.90;;;;;;;;;;5033419;28;20053;-70
2022/09/16 00:21:06;;;;;;;11.40;1.75;;;;;;;;;;5051140;28;20079;-69
2022/09/16 00:23:32;;;;;;;4.35;1.17;;;;;;;;;;5050081;28;20045;-71
2022/09/16 00:25:58;;;;;;;6.45;0.98;;;;;;;;;;5048405;28;20041;-70
2022/09/16 00:28:24;;;;;;;5.25;1.00;;;;;;;;;;5051421;28;20047;-70
2022/09/16 00:30:51;;;;;;;3.20;1.15;;;;;;;;;;5050597;28;20495;-70
2022/09/16 00:33:17;;;;;;;2.67;0.85;;;;;;;;;;5051596;28;20043;-70
2022/09/16 00:35:43;;;;;;;3.65;1.15;;;;;;;;;;5032963;28;20455;-70
2022/09/16 00:38:09;;;;;;;4.38;1.00;;;;;;;;;;5049915;28;20499;-70
2022/09/16 00:40:35;;;;;;;3.85;0.80;;;;;;;;;;5049707;28;20041;-70
2022/09/16 00:43:01;;;;;;;5.68;1.23;;;;;;;;;;5048779;28;20033;-69
2022/09/16 00:45:30;;;;;;;4.70;0.95;;;;;;;;;;5049485;28;20202;-70
2022/09/16 00:48:16;;;;;;;5.78;0.80;;;;;;;;;;5033741;28;20036;-70
2022/09/16 00:50:48;;;;;;;5.43;0.90;;;;;;;;;;5033424;28;20037;-70
2022/09/16 00:53:17;;;;;;;4.38;0.80;;;;;;;;;;5051376;28;20037;-69
2022/09/16 00:55:43;;;;;;;7.82;1.02;;;;;;;;;;5051237;28;20120;-70
2022/09/16 00:58:20;;;;;;;3.83;0.90;;;;;;;;;;5050460;28;20036;-70
2022/09/16 01:00:47;;;;;;;5.00;1.15;;;;;;;;;;5050102;28;20422;-70
2022/09/16 01:03:13;;;;;;;3.03;0.70;;;;;;;;;;5050121;28;20491;-70
2022/09/16 01:05:39;;;;;;;6.38;1.15;;;;;;;;;;5050959;28;20116;-71
2022/09/16 01:08:05;;;;;;;6.00;0.95;;;;;;;;;;5051512;28;20043;-70
2022/09/16 01:10:31;;;;;;;5.72;0.90;;;;;;;;;;5051409;28;20407;-70
2022/09/16 01:12:59;;;;;;;10.93;1.48;;;;;;;;;;5050172;28;20041;-71
2022/09/16 01:15:40;;;;;;;8.50;1.08;;;;;;;;;;5033455;28;20473;-71
2022/09/16 01:18:16;;;;;;;7.10;0.68;;;;;;;;;;5049828;28;20086;-71
2022/09/16 01:21:00;;;;;;;4.57;0.63;;;;;;;;;;5051054;28;20576;-70
2022/09/16 01:23:41;;;;;;;6.95;1.15;;;;;;;;;;5049962;28;20093;-70
2022/09/16 01:26:25;;;;;;;6.95;1.50;;;;;;;;;;5049813;28;20105;-71
2022/09/16 01:29:00;;;;;;;9.93;2.22;;;;;;;;;;5050092;28;20398;-70
2022/09/16 01:31:40;;;;;;;4.20;1.02;;;;;;;;;;5049864;28;20564;-70
2022/09/16 01:34:13;;;;;;;6.03;0.93;;;;;;;;;;5050890;28;20422;-70
2022/09/16 01:36:39;;;;;;;;;;;;;;;;;;5052509;28;20084;-71
2022/09/16 01:39:08;;;;;;;5.50;0.85;;;;;;;;;;5054729;28;20508;-70
2022/09/16 01:41:34;;;;;;;7.82;1.05;;;;;;;;;;5053238;28;20124;-70
2022/09/16 01:44:03;;;;;;;5.35;1.10;;;;;;;;;;5054400;28;20041;-70
2022/09/16 01:46:30;;;;;;;4.30;0.90;;;;;;;;;;5053311;28;20091;-70
2022/09/16 01:48:56;;;;;;;4.35;0.90;;;;;;;;;;5053385;28;20037;-70
2022/09/16 01:51:33;;;;;;;3.35;1.70;;;;;;;;;;5036461;28;20384;-69
2022/09/16 01:54:11;;;;;;;2.90;0.80;;;;;;;;;;5053116;28;20380;-69
2022/09/16 01:56:50;;;;;;;5.93;1.00;;;;;;;;;;5053356;28;20048;-71
2022/09/16 01:59:25;;;;;;;4.10;0.90;;;;;;;;;;5052999;28;20049;-70
2022/09/16 02:01:54;;;;;;;9.02;1.08;;;;;;;;;;5052891;28;20474;-69
2022/09/16 02:04:25;;;;;;;6.57;1.02;;;12.10;99.90;;;;;;5052565;28;20044;-70
2022/09/16 02:06:54;;;;;;;7.88;1.27;;;12.20;99.90;;;;;;5054362;28;20087;-70
2022/09/16 02:09:25;;;;;;;5.80;2.13;;;12.20;99.90;;;;;;5053058;28;20108;-69
2022/09/16 02:11:55;;;;;;;5.07;0.60;;;12.10;99.90;;;;;;5052993;28;20437;-69
2022/09/16 02:14:25;;;;;;;6.72;1.27;;;12.20;99.90;;;;;;5052403;28;20052;-70
2022/09/16 02:17:06;;;;;;;8.55;1.02;;;12.20;99.90;;;;;;5052937;28;20080;-70
2022/09/16 02:19:56;;;;;;;3.60;0.90;;;12.30;99.90;;;;;;5054118;28;20529;-70
2022/09/16 02:22:31;;;;;;;7.25;1.13;;;12.30;99.90;;;;;;5052627;28;20495;-70
2022/09/16 02:24:59;;;;;;;7.88;1.58;;;12.30;99.90;;;;;;5052314;28;20049;-70
2022/09/16 02:27:27;;;;;;;8.25;1.80;;;12.20;99.90;;;;;;5054044;28;20102;-71
2022/09/16 02:29:59;;;;;;;6.80;1.20;;;12.10;99.90;;;;;;5052683;28;20418;-70
2022/09/16 02:32:27;;;;;;;4.35;1.17;;;12.00;99.90;;;;;;5052368;28;20510;-70
2022/09/16 02:34:54;;;;;;;6.22;1.00;;;12.10;99.90;;;;;;5052377;28;20044;-71
2022/09/16 02:37:34;;;;;;;7.20;1.55;;;12.00;99.90;;;;;;5053493;28;20064;-70
2022/09/16 02:40:06;;;;;;;4.72;1.80;;;11.80;99.90;;;;;;5053757;28;20041;-70
2022/09/16 02:42:32;;;;;;;7.72;2.08;;;;;;;;;;5053650;28;20498;-69
2022/09/16 02:44:59;;;;;;;5.32;2.17;;;11.70;99.90;;;;;;5052060;28;20593;-70
2022/09/16 02:47:32;;;;;;;5.25;2.10;;;11.90;99.90;;;;;;5053392;28;20037;-70
2022/09/16 02:50:18;;;;;;;5.97;3.10;;;11.70;99.90;;;;;;5052785;28;20119;-70
2022/09/16 02:53:00;;;;;;;8.55;2.45;;;11.70;99.90;;;;;;5052274;28;20041;-70
2022/09/16 02:55:55;;;;;;;6.43;1.67;;;11.70;99.90;;;;;;5051705;28;20055;-70
2022/09/16 02:58:21;;;;;;;4.93;1.15;;;11.60;99.90;;;;;;5053662;28;20037;-69
2022/09/16 03:00:50;;;;;;;12.05;1.80;;;11.80;99.90;;;;;;5035267;28;20097;-69
2022/09/16 03:03:16;;;;;;;5.53;1.15;;;11.80;99.90;;;;;;5035208;28;20048;-70
2022/09/16 03:06:12;;;;;;;5.93;0.98;;;11.90;99.90;;;;;;5051802;28;20063;-71
2022/09/16 03:08:39;;;;;;;8.63;2.10;;;11.90;99.90;;;;;;5052063;28;20041;-71
2022/09/16 03:11:30;;;;;;;7.97;1.40;;;11.90;99.90;;;;;;5051980;28;20048;-69
2022/09/16 03:14:08;;;;;;;2.78;1.13;;;11.80;99.90;;;;;;5051773;28;20270;-69
2022/09/16 03:16:38;;;;;;;7.43;1.45;;;12.00;99.90;;;;;;5051521;28;20091;-71
2022/09/16 03:19:22;;;;;;;5.95;1.33;;;11.80;99.90;;;;;;5051575;28;20043;-69
2022/09/16 03:22:00;;;;;;;6.28;1.00;;;11.70;99.90;;;;;;5052838;28;20046;-70
2022/09/16 03:24:46;;;;;;;4.93;1.08;;;11.70;99.90;;;;;;5052836;28;20052;-69
2022/09/16 03:27:37;;;;;;;8.30;0.98;;;11.80;99.90;;;;;;5051445;28;20124;-71
2022/09/16 03:30:09;;;;;;;9.55;1.23;;;11.80;99.90;;;;;;5051254;28;20115;-70
2022/09/16 03:32:55;;;;;;;7.15;1.17;;;11.70;99.90;;;;;;5052708;28;20036;-70
2022/09/16 03:35:42;;;;;;;4.47;1.00;;;11.90;99.90;;;;;;5034402;28;20051;-70
2022/09/16 03:38:10;;;;;;;5.70;0.93;;;11.60;99.90;;;;;;5052689;28;20055;-70
2022/09/16 03:40:36;;;;;;;5.22;1.10;;;11.80;99.90;;;;;;5051056;28;20048;-69
2022/09/16 03:43:10;;;;;;;5.38;1.77;;;11.80;99.90;;;;;;5034446;28;20494;-71
2022/09/16 03:45:36;;;;;;;9.77;1.38;;;11.90;99.90;;;;;;5050700;28;20041;-69
2022/09/16 03:48:02;;;;;;;11.63;3.13;;;11.70;99.90;;;;;;5051041;28;20059;-71
2022/09/16 03:50:27;;;;;;;12.13;1.55;;;11.70;99.90;;;;;;5034521;28;20407;-69
2022/09/16 03:52:53;;;;;;;8.18;1.38;;;11.70;99.90;;;;;;5052376;28;20412;-69
2022/09/16 03:55:19;;;;;;;13.65;1.80;;;;;;;;;;5050592;28;20048;-69
2022/09/16 03:57:45;;;;;;;5.95;1.60;;;;;;;;;;5052178;28;20075;-69
2022/09/16 04:00:11;;;;;;;6.03;1.10;;;11.90;99.90;;;;;;5049716;28;20518;-69
2022/09/16 04:02:37;;;;;;;8.93;1.42;;;11.90;99.90;;;;;;5052002;28;20037;-71
2022/09/16 04:05:03;;;;;;;15.73;2.17;;;11.70;99.90;;;;;;5051859;28;20518;-70
2022/09/16 04:07:29;;;;;;;7.28;1.58;;;;;;;;;;5052398;28;20041;-69
2022/09/16 04:09:54;;;;;;;11.23;1.50;;;11.70;99.90;;;;;;5034062;28;20506;-69
2022/09/16 04:12:20;;;;;;;8.35;1.30;;;;;;;;;;5050861;28;20040;-69
2022/09/16 04:14:46;;;;;;;6.18;1.48;;;;;;;;;;5034148;28;20093;-70
2022/09/16 04:17:12;;;;;;;9.57;1.55;;;;;;;;;;5034275;28;20045;-70
2022/09/16 04:19:38;;;;;;;6.47;1.48;;;11.60;99.90;;;;;;5051233;28;20041;-70
2022/09/16 04:22:03;;;;;;;8.57;1.30;;;11.60;99.90;;;;;;5052552;28;20424;-71
2022/09/16 04:24:29;;;;;;;10.75;1.75;;;11.50;99.90;;;;;;5050775;28;20063;-70
2022/09/16 04:26:55;;;;;;;8.43;2.00;;;;;;;;;;5051018;28;20037;-70
2022/09/16 04:29:20;;;;;;;11.48;2.15;;;11.60;99.90;;;;;;5052190;28;20474;-69
2022/09/16 04:31:46;;;;;;;7.95;1.50;;;;;;;;;;5051953;28;20047;-69
2022/09/16 04:34:12;;;;;;;13.68;1.90;;;11.60;99.90;;;;;;5049966;28;20056;-70
2022/09/16 04:36:38;;;;;;;8.70;1.45;;;11.50;99.90;;;;;;5050356;28;20513;-70
2022/09/16 04:39:04;;;;;;;7.68;1.25;;;11.40;99.90;;;;;;5050330;28;20120;-70
2022/09/16 04:41:30;;;;;;;7.03;1.50;;;11.40;99.90;;;;;;5050522;28;20103;-69
2022/09/16 04:43:57;;;;;;;9.07;1.40;;;11.30;99.90;;;;;;5049982;28;20048;-70
2022/09/16 04:46:24;;;;;;;7.35;1.45;;;11.20;99.90;;;;;;5050308;28;20098;-70
2022/09/16 04:48:51;;;;;;;7.93;1.80;;;11.40;99.90;;;;;;5051701;28;20045;-69
2022/09/16 04:51:18;;;;;;;10.55;1.70;;;11.20;99.90;;;;;;5050131;28;20048;-69
2022/09/16 04:53:45;;;;;;;9.77;1.30;;;11.20;99.90;;;;;;5050019;28;20045;-69
2022/09/16 04:56:16;;;;;;;9.82;1.88;;;11.30;99.90;;;;;;5050034;28;20047;-70
2022/09/16 04:58:46;;;;;;;7.68;1.38;;;11.10;99.90;;;;;;5051467;28;20049;-70
2022/09/16 05:01:25;;;;;;;13.32;2.47;;;11.30;99.90;;;;;;5050168;28;20037;-69
2022/09/16 05:03:52;;;;;;;7.05;1.13;;;11.00;99.90;;;;;;5033251;28;20041;-70
2022/09/16 05:06:21;;;;;;;10.27;1.58;;;11.20;99.90;;;;;;5050286;28;20530;-72
2022/09/16 05:08:50;;;;;;;10.15;1.42;;;11.00;99.90;;;;;;5050162;28;20124;-70
2022/09/16 05:11:18;;;;;;;5.30;1.50;;;11.10;99.90;;;;;;5033905;28;20033;-70
2022/09/16 05:13:44;;;;;;;10.60;2.10;;;11.00;99.90;;;;;;5054003;28;20087;-69
2022/09/16 05:16:15;;;;;;;10.80;2.05;;;11.10;99.90;;;;;;5055224;28;20037;-70
2022/09/16 05:18:43;;;;;;;8.52;1.80;;;10.90;99.90;;;;;;5053990;28;20051;-69
2022/09/16 05:21:13;;;;;;;9.38;1.50;;;11.10;99.90;;;;;;5037082;28;20041;-71
2022/09/16 05:23:39;;;;;;;10.50;1.73;;;11.10;99.90;;;;;;5053742;28;20044;-71
2022/09/16 05:26:23;;;;;;;12.00;2.25;;;11.30;99.90;;;;;;5037225;28;20083;-70
2022/09/16 05:28:51;;;;;;;;;;;11.20;99.90;;;;;;5055634;28;20466;-70
2022/09/16 05:31:18;;;;;;;12.05;1.40;;;11.50;99.90;;;;;;5053799;28;19999;-69
2022/09/16 05:33:46;;;;;;;11.32;1.70;;;11.60;99.90;;;;;;5053414;28;20132;-69
2022/09/16 05:36:15;;;;;;;4.35;1.33;;;11.60;99.90;;;;;;5036899;28;20095;-69
2022/09/16 05:38:41;;;;;;;6.47;1.10;;;11.70;99.90;;;;;;5053410;28;20499;-69
2022/09/16 05:41:07;;;;;;;4.88;1.52;;;11.40;99.90;;;;;;5036779;28;20037;-71
2022/09/16 05:43:34;;;;;;;14.05;2.78;;;11.50;99.90;;;;;;5054624;28;20376;-69
2022/09/16 05:46:00;;;;;;;11.63;2.33;;;11.50;99.90;;;;;;5053065;28;20094;-70
2022/09/16 05:48:26;;;;;;;9.20;1.27;;;11.60;99.90;;;;;;5053582;28;20403;-70
2022/09/16 05:50:55;;;;;;;7.68;1.55;;;11.50;99.90;;;;;;5036484;28;20518;-71
2022/09/16 05:53:22;;;;;;;16.02;1.98;;;11.60;99.90;;;;;;5053393;28;20044;-69
2022/09/16 05:55:59;;;;;;;11.18;1.60;;;11.50;99.90;;;;;;5053084;28;20399;-70
2022/09/16 05:58:26;;;;;;;8.38;1.70;;;11.50;99.90;;;;;;5053095;28;20041;-69
2022/09/16 06:00:58;;;;;;;14.10;2.05;;;11.40;99.90;;;;;;5076581;22;20124;-75
2022/09/16 06:03:23;;;;;;;13.93;2.00;;;11.30;99.90;;;;;;5052768;28;20044;-74
2022/09/16 06:06:11;;;;;;;9.70;2.25;;;11.20;99.90;;;;;;5051288;28;20033;-74
2022/09/16 06:08:38;;;;;;;8.23;1.80;;;;;;;;;;5041904;28;20033;-74
2022/09/16 06:11:07;;;;;;;8.63;1.92;;;11.40;99.90;;;;;;5047672;28;20041;-74
2022/09/16 06:13:33;;;;;;;10.05;1.85;;;11.30;99.90;;;;;;5052638;28;20048;-75
2022/09/16 06:15:59;;;;;;;10.07;1.92;;;11.50;99.90;;;;;;5056382;28;20028;-74
2022/09/16 06:18:28;;;;;;;7.45;1.85;;;11.50;99.90;;;;;;5048863;28;20068;-73
2022/09/16 06:20:54;;;;;;;7.43;1.85;;;11.60;99.90;;;;;;5060777;28;20029;-75
2022/09/16 06:23:21;;;;;;;8.55;1.48;;;11.50;99.90;;;;;;5054282;28;20084;-75
2022/09/16 06:26:20;;;;;;;10.13;1.55;;;11.80;99.90;;;;;;5061898;28;20037;-74
2022/09/16 06:28:46;;;;;;;12.68;1.60;;;11.80;99.90;;;;;;5019577;28;20059;-76
2022/09/16 06:31:15;;;;;;;12.27;1.92;;;11.70;99.90;;;;;;5048448;28;20032;-76
2022/09/16 06:33:41;;;;;;;9.70;1.95;;;;;;;;;;5035336;28;20045;-75
2022/09/16 06:36:12;;;;;;;13.40;1.60;;;11.80;99.90;;;;;;5057511;28;20104;-75
2022/09/16 06:38:38;;;;;;;8.77;1.77;;;;;;;;;;5059200;28;20440;-76
2022/09/16 06:41:06;;;;;;;10.57;1.45;;;11.80;99.90;;;;;;5048978;28;20102;-76
2022/09/16 06:43:33;;;;;;;6.88;1.30;;;11.80;99.90;;;;;;5049686;28;20049;-76
2022/09/16 06:46:04;;;;;;;10.85;1.67;;;11.90;99.90;;;;;;5033535;28;20032;-76
2022/09/16 06:48:32;;;;;;;15.55;2.10;;;12.00;99.90;;;;;;5054957;28;20380;-74
2022/09/16 06:51:06;;;;;;;10.65;2.03;;;12.20;99.90;;;;;;5039563;28;20085;-76
2022/09/16 06:53:32;;;;;;;13.38;2.28;;;12.30;99.90;;;;;;5022813;28;20526;-74
2022/09/16 06:56:07;;;;;;;9.73;1.65;;;12.30;99.90;;;;;;5030769;28;20438;-74
2022/09/16 06:58:34;;;;;;;13.63;1.90;;;12.30;99.90;;;;;;5035486;28;20398;-74
2022/09/16 07:01:11;;;;;;;10.63;2.10;;;12.40;99.90;;;;;;5046223;28;20048;-75
2022/09/16 07:03:39;;;;;;;8.60;1.65;;;12.60;99.90;;;;;;5049415;28;20036;-74
2022/09/16 07:06:05;;;;;;;13.82;1.80;;;;;;;;;;5043677;28;20232;-74
2022/09/16 07:08:32;;;;;;;8.30;2.03;;;13.50;99.90;;;;;;5053705;28;20063;-73
2022/09/16 07:11:02;;;;;;;12.35;1.50;;;13.00;99.90;;;;;;5043475;28;20032;-74
2022/09/16 07:13:28;;;;;;;9.43;1.60;;;13.30;99.90;;;;;;5056813;28;20040;-75
2022/09/16 07:15:55;;;;;;;9.75;1.52;;;;;;;;;;5049784;28;20037;-75
2022/09/16 07:18:21;;;;;;;14.57;1.55;;;;;;;;;;5047065;28;20101;-75
2022/09/16 07:20:46;;;;;;;7.70;1.52;;;;;;;;;;5055969;28;20120;-75
2022/09/16 07:23:12;;;;;;;10.20;1.50;;;;;;;;;;5060228;28;20058;-75
2022/09/16 07:25:38;;;;;;;14.98;1.65;;;;;;;;;;5056116;28;20411;-73
2022/09/16 07:28:05;;;;;;;14.48;1.63;;;;;;;;;;5037136;28;20136;-75
2022/09/16 07:30:33;;;;;;;11.75;2.10;;;;;;;;;;5049369;28;20448;-75
2022/09/16 07:32:58;;;;;;;12.00;2.08;;;13.90;99.90;;;;;;5032454;28;20067;-76
2022/09/16 07:35:24;;;;;;;13.45;1.73;;;;;;;;;;5065694;28;20040;-75
2022/09/16 07:37:50;;;;;;;15.88;2.47;;;;;;;;;;5034899;28;20049;-75
2022/09/16 07:40:17;;;;;;;10.38;1.75;;;;;;;;;;5050745;28;20049;-75
2022/09/16 07:42:43;;;;;;;9.82;1.92;;;14.30;99.90;;;;;;5051642;28;20041;-76
2022/09/16 07:45:09;;;;;;;14.82;2.67;;;14.50;99.90;;;;;;5053592;28;20056;-76
2022/09/16 07:47:34;;;;;;;11.35;2.10;;;14.30;99.90;;;;;;5051011;28;20128;-76
2022/09/16 07:50:00;;;;;;;9.52;1.75;;;;;;;;;;5031458;28;20037;-74
2022/09/16 07:52:28;;;;;;;10.80;2.42;;;;;;;;;;5039236;28;20550;-75
2022/09/16 07:54:54;;;;;;;14.60;3.58;;;14.20;99.90;;;;;;5043487;28;20407;-75
2022/09/16 07:57:21;;;;;;;8.93;1.70;;;14.30;99.90;;;;;;5050592;28;20044;-74
2022/09/16 07:59:47;;;;;;;6.78;2.08;;;14.50;99.90;;;;;;5039813;28;20041;-75
2022/09/16 08:02:12;;;;;;;9.65;3.10;;;14.40;99.90;;;;;;5050108;28;20506;-75
2022/09/16 08:04:38;;;;;;;15.30;2.78;;;14.30;99.90;;;;;;5032547;28;20037;-75
2022/09/16 08:07:05;;;;;;;8.48;3.05;;;14.30;99.90;;;;;;5050411;28;20468;-75
2022/09/16 08:09:30;;;;;;;12.57;2.40;;;14.20;99.90;;;;;;5051095;28;20041;-75
2022/09/16 08:11:57;;;;;;;14.50;2.90;;;14.20;99.90;;;;;;5049466;28;20497;-75
2022/09/16 08:14:23;;;;;;;16.75;3.05;;;;;;;;;;5049810;28;20040;-76
2022/09/16 08:16:51;;;;;;;14.38;2.83;;;14.50;99.90;;;;;;5049148;28;20045;-75
2022/09/16 08:19:18;;;;;;;10.65;2.13;;;14.60;99.90;;;;;;5050312;28;20051;-75
2022/09/16 08:21:44;;;;;;;11.27;2.40;;;;;;;;;;5049543;28;20522;-76
2022/09/16 08:24:10;;;;;;;7.38;2.25;;;;;;;;;;5014304;28;20041;-75
2022/09/16 08:26:36;;;;;;;14.20;1.75;;;14.90;99.90;;;;;;5030803;28;20615;-74
2022/09/16 08:29:02;;;;;;;6.45;1.52;;;14.90;99.90;;;;;;5038759;28;20033;-75
2022/09/16 08:31:28;;;;;;;11.50;3.47;;;15.00;99.90;;;;;;5033506;28;20037;-76
2022/09/16 08:33:54;;;;;;;9.73;2.35;;;;;;;;;;5050612;28;20044;-75
2022/09/16 08:36:22;;;;;;;11.90;3.05;;;15.20;99.90;;;;;;5018926;28;20056;-75
2022/09/16 08:38:50;;;;;;;10.73;1.63;;;15.20;99.90;;;;;;5031518;28;20037;-75
2022/09/16 08:41:40;;;;;;;8.68;1.45;;;15.50;99.90;;;;;;5032504;28;20090;-75
2022/09/16 08:44:17;;;;;;;8.65;1.20;;;15.50;99.90;;;;;;5047151;28;20044;-75
2022/09/16 08:46:59;;;;;;;13.73;2.38;;;15.70;99.90;;;;;;5047710;28;20116;-76
2022/09/16 08:49:38;;;;;;;6.07;1.58;;;15.60;99.90;;;;;;5016322;28;20542;-75
2022/09/16 08:52:26;;;;;;;8.73;2.28;;;15.70;99.90;;;;;;5034715;28;20037;-75
2022/09/16 08:55:00;;;;;;;15.90;3.40;;;15.80;99.90;;;;;;5032544;28;20052;-72
2022/09/16 08:57:29;;;;;;;11.85;2.20;;;15.90;99.90;;;;;;5016729;28;20042;-75
2022/09/16 09:00:00;;;;;;;9.95;2.85;;;16.00;99.90;;;;;;5045284;28;20103;-75
2022/09/16 09:02:38;;;;;;;14.32;2.28;;;16.00;99.90;;;;;;5052001;28;20529;-75
2022/09/16 09:05:21;;;;;;;8.65;1.67;;;16.00;99.80;;;;;;5054033;28;20048;-74
2022/09/16 09:08:03;;;;;;;14.52;4.22;;;16.10;99.70;;;;;;5045836;28;20178;-75
2022/09/16 09:10:49;;;;;;;7.45;2.15;;;16.20;99.90;;;;;;5053497;28;20045;-75
2022/09/16 09:13:43;;;;;;;10.40;1.83;;;16.30;99.90;;;;;;5025897;28;20036;-75
2022/09/16 09:16:26;;;;;;;;;;;16.30;99.20;;;;;;5036603;28;20055;-75
2022/09/16 09:19:19;;;;;;;9.90;2.35;;;16.40;98.80;;;;;;5035751;28;20003;-75
2022/09/16 09:21:53;;;;;;;13.68;2.70;;;16.60;99.70;;;;;;5036226;28;20045;-75
2022/09/16 09:24:42;;;;;;;10.23;2.40;;;16.30;99.50;;;;;;5045024;28;20530;-75
2022/09/16 09:27:13;;;;;;;9.65;2.30;;;16.10;99.90;;;;;;5034933;28;20107;-75
2022/09/16 09:30:00;;;;;;;13.93;2.40;;;16.10;99.90;;;;;;5033174;28;20045;-75
2022/09/16 09:32:42;;;;;;;12.32;3.17;;;16.10;99.90;;;;;;5043402;28;20670;-75
2022/09/16 09:35:26;;;;;;;11.00;2.45;;;16.10;99.90;;;;;;5043102;28;20065;-74
2022/09/16 09:38:22;;;;;;;10.80;2.22;;;16.40;99.90;;;;;;5047177;28;20074;-75
2022/09/16 09:40:59;;;;;;;8.38;1.90;;;16.50;99.90;;;;;;5052373;28;20037;-75
2022/09/16 09:43:56;;;;;;;11.70;1.88;;;17.50;99.90;;;;;;5052311;28;20091;-74
2022/09/16 09:46:32;;;;;;;6.95;1.75;;;16.00;99.90;;;;;;5044649;28;20041;-74
2022/09/16 09:49:25;;;;;;;6.75;1.58;;;15.90;99.90;;;;;;5046148;28;20044;-75
2022/09/16 09:52:09;;;;;;;9.85;1.77;;;16.10;99.90;;;;;;5033562;28;20115;-76
2022/09/16 09:54:36;;;;;;;10.27;1.63;;;16.10;99.90;;;;;;5032254;28;20045;-72
2022/09/16 09:57:22;;;;;;;20.20;3.22;;;16.40;99.90;;;;;;5032792;28;20128;-72
2022/09/16 09:59:57;;;;;;;9.30;2.00;;;16.50;99.90;;;;;;5031120;28;20460;-72
2022/09/16 10:02:23;;;;;;;7.78;2.40;;;16.70;99.90;;;;;;5050716;28;20219;-72
2022/09/16 10:04:49;;;;;;;9.18;1.33;;;16.70;99.60;;;;;;5051916;28;20047;-72
2022/09/16 10:07:19;;;;;;;13.43;1.90;;;16.80;99.00;;;;;;5041407;28;20474;-71
2022/09/16 10:09:59;;;;;;;9.65;1.85;;;16.80;99.50;;;;;;5052308;28;20044;-73
2022/09/16 10:12:35;;;;;;;11.85;1.77;;;16.80;99.70;;;;;;5051816;28;20051;-72
2022/09/16 10:15:02;;;;;;;7.97;1.90;;;17.30;99.30;;;;;;5051627;28;20084;-70
2022/09/16 10:17:30;;;;;;;19.27;2.95;;;17.80;99.40;;;;;;5050996;28;20498;-70
2022/09/16 10:20:04;;;;;;;10.90;1.63;;;17.00;99.60;;;;;;5053171;28;20047;-69
2022/09/16 10:22:32;;;;;;;9.15;1.70;;;17.10;98.70;;;;;;5051616;28;20072;-68
2022/09/16 10:25:25;;;;;;;11.07;2.22;;;17.00;99.60;;;;;;5051903;28;20051;-69
2022/09/16 10:28:03;;;;;;;14.77;2.33;;;17.00;99.90;;;;;;5025099;28;20411;-69
2022/09/16 10:30:44;;;;;;;9.55;1.42;;;17.00;99.60;;;;;;5030513;28;20045;-69
2022/09/16 10:33:23;;;;;;;4.97;1.10;;;16.80;99.70;;;;;;5032816;28;20037;-69
2022/09/16 10:36:17;;;;;;;12.05;1.50;;;16.70;98.10;;;;;;5031328;28;20037;-69
2022/09/16 10:38:49;;;;;;;8.05;1.80;;;17.10;99.90;;;;;;5034671;28;20068;-69
2022/09/16 10:41:20;;;;;;;10.57;1.92;;;17.30;99.30;;;;;;5052010;28;20036;-69
2022/09/16 10:43:51;;;;;;;8.65;2.35;;;17.20;98.60;;;;;;5052980;28;20686;-68
2022/09/16 10:46:18;;;;;;;10.75;2.00;;;17.30;98.80;;;;;;5034975;28;20055;-69
2022/09/16 10:48:45;;;;;;;16.20;3.58;;;17.30;98.80;;;;;;5045539;28;20116;-69
2022/09/16 10:51:26;;;;;;;9.48;2.30;;;17.50;99.00;;;;;;5032476;28;20080;-70
2022/09/16 10:53:55;;;;;;;11.50;2.10;;;17.10;97.90;;;;;;5049449;28;20088;-67
2022/09/16 10:56:45;;;;;;;10.98;2.00;;;17.50;99.00;;;;;;5050150;28;20040;-69
2022/09/16 10:59:13;;;;;;;7.00;1.52;;;17.20;99.00;;;;;;5038892;28;20063;-69
2022/09/16 11:02:06;;;;;;;8.23;1.52;;;17.90;99.60;;;;;;5043105;28;20036;-69
2022/09/16 11:05:05;;;;;;;13.45;2.60;;;16.70;99.90;;;;;;5051786;28;20041;-69
2022/09/16 11:07:51;;;;;;;12.52;2.63;;;15.80;99.90;;;;;;5042797;28;20124;-69
2022/09/16 11:10:22;;;;;;;10.50;2.10;;;15.60;99.90;;;;;;5051905;28;20107;-69
2022/09/16 11:13:07;;;;;;;11.68;1.73;;;16.10;99.90;;;;;;5051173;28;20033;-69
2022/09/16 11:15:32;;;;;;;9.60;1.50;;;16.30;99.90;;;;;;5052732;28;20124;-69
2022/09/16 11:18:30;;;;;;;9.07;1.80;;;16.80;99.90;;;;;;5050394;28;20131;-69
2022/09/16 11:21:22;;;;;;;6.70;1.48;;;16.00;99.90;;;;;;5043983;28;20414;-69
2022/09/16 11:23:57;;;;;;;4.93;1.10;;;16.40;99.90;;;;;;5021855;28;20144;-69
2022/09/16 11:26:25;;;;;;;11.25;1.73;;;16.90;99.70;;;;;;5035530;28;20037;-69
2022/09/16 11:28:59;;;;;;;10.30;1.35;;;17.20;99.90;;;;;;5044639;28;20040;-69
2022/09/16 11:31:48;;;;;;;8.68;1.60;;;17.30;99.90;;;;;;5041059;28;20072;-68
2022/09/16 11:34:30;;;;;;;11.27;2.15;;;17.40;99.90;;;;;;5031410;28;20057;-69
2022/09/16 11:37:07;;;;;;;7.90;1.60;;;17.10;99.90;;;;;;5039841;28;20112;-70
2022/09/16 11:39:38;;;;;;;10.65;1.77;;;16.50;99.50;;;;;;5033652;28;20040;-69
2022/09/16 11:42:20;;;;;;;7.20;1.30;;;16.50;98.30;;;;;;5044861;28;20037;-69
2022/09/16 11:45:07;;;;;;;8.48;1.73;;;17.00;98.60;;;;;;5049974;28;20077;-69
2022/09/16 11:47:51;;;;;;;11.20;1.98;;;16.90;98.00;;;;;;5033815;28;20037;-69
2022/09/16 11:50:37;;;;;;;9.85;1.40;;;17.30;98.80;;;;;;5056948;28;20111;-69
2022/09/16 11:53:13;;;;;;;7.68;1.92;;;17.40;97.80;;;;;;5051464;28;20037;-69
2022/09/16 11:56:01;;;;;;;9.00;2.42;;;17.00;99.50;;;;;;5043970;28;20037;-70
2022/09/16 11:58:50;;;;;;;11.60;2.30;;;17.10;98.50;;;;;;5013430;28;20505;-69
2022/09/16 12:01:34;;;;;;;13.05;3.03;;;17.50;99.40;;;;;;5054200;22;20398;-72
2022/09/16 12:04:06;;;;;;;8.57;2.25;;;17.60;98.40;;;;;;5043572;28;20045;-71
2022/09/16 12:06:57;;;;;;;14.05;2.95;;;17.50;97.70;;;;;;5033740;28;20087;-72
2022/09/16 12:09:38;;;;;;;9.07;1.90;;;17.50;98.00;;;;;;5027242;28;20029;-72
2022/09/16 12:12:10;;;;;;;11.10;1.95;;;17.30;98.90;;;;;;5030395;28;20108;-71
2022/09/16 12:14:53;;;;;;;7.32;1.73;;;17.10;98.90;;;;;;5013260;28;20045;-72
2022/09/16 12:17:26;;;;;;;11.95;1.70;;;17.90;99.60;;;;;;5030807;28;20041;-72
2022/09/16 12:20:11;;;;;;;13.88;2.00;;;18.40;99.60;;;;;;5006710;28;20037;-72
2022/09/16 12:22:48;;;;;;;13.32;2.38;;;17.40;98.80;;;;;;5025147;28;20458;-72
2022/09/16 12:25:42;;;;;;;8.90;1.80;;;18.50;99.40;;;;;;5033106;28;20041;-72
2022/09/16 12:28:32;;;;;;;16.95;2.58;;;17.40;98.10;;;;;;5047498;28;20040;-72
2022/09/16 12:31:13;;;;;;;8.88;1.85;;;17.50;99.60;;;;;;5023275;28;20040;-72
2022/09/16 12:33:46;;;;;;;17.20;3.75;;;17.40;99.10;;;;;;5026052;28;20073;-72
2022/09/16 12:36:17;;;;;;;15.50;3.13;;;17.50;98.90;;;;;;5030722;28;20034;-74
2022/09/16 12:38:43;;;;;;;16.33;3.28;;;17.50;98.50;;;;;;4996820;28;20139;-74
2022/09/16 12:41:20;;;;;;;17.08;2.92;;;18.20;99.10;;;;;;5030098;28;20688;-74
2022/09/16 12:44:05;;;;;;;12.20;2.38;;;17.50;99.00;;;;;;5013116;28;20044;-73
2022/09/16 12:46:48;;;;;;;13.90;2.60;;;17.10;98.50;;;;;;5013165;28;20037;-72
2022/09/16 12:49:13;;;;;;;11.00;2.30;;;17.10;99.50;;;;;;5012994;28;20503;-73
2022/09/16 12:52:04;;;;;;;20.75;3.78;;;17.10;99.50;;;;;;5012698;28;20056;-72
2022/09/16 12:54:57;;;;;;;14.65;3.55;;;16.70;99.90;;;;;;5001470;28;20072;-72
2022/09/16 12:57:31;;;;;;;19.75;3.25;;;15.60;99.90;;;;;;5033128;28;20045;-73
2022/09/16 13:00:35;;;;;;;14.70;3.20;;;15.80;99.90;;;;;;5032168;28;20055;-71
2022/09/16 13:03:21;;;;;;;;;;;16.80;99.90;;;;;;5030831;28;20079;-72
2022/09/16 13:05:50;;;;;;;14.52;3.25;;;16.00;99.90;;;;;;5050544;28;19924;-72
2022/09/16 13:08:27;;;;;;;11.98;2.95;;;16.50;99.90;;;;;;5023040;28;20120;-72
2022/09/16 13:11:04;;;;;;;19.30;3.22;;;16.30;99.90;;;;;;5033586;28;20148;-70
2022/09/16 13:13:55;;;;;;;17.05;3.20;;;16.30;99.90;;;;;;5032826;28;20386;-72
2022/09/16 13:16:30;;;;;;;12.68;3.25;;;16.70;99.90;;;;;;5033972;28;20049;-72
2022/09/16 13:19:23;;;;;;;11.85;2.70;;;18.00;99.90;;;;;;5045254;28;20574;-72
2022/09/16 13:21:53;;;;;;;14.30;2.72;;;17.50;99.90;;;;;;4996036;28;20108;-73
2022/09/16 13:24:39;;;;;;;13.75;2.80;;;17.20;99.90;;;;;;5030964;28;20488;-72
2022/09/16 13:27:33;;;;;;;12.13;2.15;;;15.80;99.90;;;;;;5027060;28;20033;-71
2022/09/16 13:30:12;;;;;;;10.77;2.78;;;15.20;99.90;;;;;;5050695;28;20375;-71
2022/09/16 13:32:44;;;;;;;14.07;3.30;;;15.10;99.90;;;;;;5033231;28;20041;-72
2022/09/16 13:35:22;;;;;;;17.70;4.37;;;14.70;99.90;;;;;;5036346;28;20049;-72
2022/09/16 13:37:51;;;;;;;10.73;2.15;;;14.60;99.90;;;;;;5036954;28;20279;-72
2022/09/16 13:40:22;;;;;;;12.20;3.35;;;15.10;99.90;;;;;;5018868;28;20068;-72